createdAt,value
2023-02-27T00:20:29.788Z,16.7
2023-02-27T00:50:30.267Z,16.3
2023-02-27T01:20:41.007Z,16.1
2023-02-27T02:20:42.310Z,15.8
2023-02-27T02:50:42.926Z,15.6
2023-02-27T03:20:43.400Z,15.5
2023-02-27T03:50:43.863Z,15.4
2023-02-27T04:20:44.294Z,15.2
2023-02-27T04:50:44.728Z,15.1
2023-02-27T05:20:45.149Z,15
2023-02-27T05:50:45.580Z,14.9
2023-02-27T06:20:46.058Z,14.8
2023-02-27T06:50:56.646Z,14.7
2023-02-27T07:20:57.081Z,14.6
2023-02-27T07:51:07.965Z,14.7
2023-02-27T08:21:08.419Z,12.6
2023-02-27T08:51:09.364Z,13.6
2023-02-27T09:21:10.050Z,14
2023-02-27T09:51:10.773Z,14
2023-02-27T10:21:11.235Z,14.1
2023-02-27T10:51:11.666Z,14.3
2023-02-27T11:21:12.214Z,14.1
2023-02-27T11:51:12.645Z,14.1
2023-02-27T12:21:13.105Z,14.2
2023-02-27T12:51:13.563Z,14.2
2023-02-27T13:21:24.542Z,14.1
2023-02-27T13:51:25.773Z,13.9
2023-02-27T14:21:36.793Z,13.9
2023-02-27T14:51:37.348Z,13.8
2023-02-27T15:21:37.790Z,13.8
2023-02-27T15:51:38.256Z,13.8
2023-02-27T16:21:39.009Z,13.7
2023-02-27T16:51:39.478Z,13.9
2023-02-27T17:21:39.906Z,14
2023-02-27T17:51:50.835Z,14
2023-02-27T18:21:51.262Z,14
2023-02-27T18:51:51.691Z,14
2023-02-27T19:21:52.134Z,13.9
2023-02-27T19:51:53.009Z,13.9
2023-02-27T20:21:53.432Z,13.9
2023-02-27T20:51:53.865Z,13.9
2023-02-27T21:21:54.325Z,13.9
2023-02-27T21:51:54.768Z,13.9
2023-02-27T22:21:55.411Z,13.9
2023-02-27T22:51:55.911Z,13.9
2023-02-27T23:22:06.716Z,13.9
2023-02-27T23:52:07.114Z,13.9
